Terminal Aerodrome Forecast
Issued by NWS Jackson, MS

Home | Current Version | Previous Version | Text Only | Print | Product List | Glossary On
Versions: 1 2 3 4 5 6 7 8 9 10 11 12 13 14 15 16
498
FTUS44 KMEG 290530
TAFTUP
TAF
KTUP 290530Z 2906/3006 04003KT P6SM SKC
      TEMPO 2909/2913 3SM BR
     FM291600 12006KT P6SM SCT040 SCT250
     FM300200 08002KT P6SM SKC=

USA.gov is the U.S. government's official web portal to all federal, state and local government web resources and services.